Time;durP1;ratioP1;P1;durP2;ratioP2;P2;SDS_P1;SDS_P2;PMS_P1;PMS_P2;Temp;Humidity;BMP_temperature;BMP_pressure;BME280_temperature;BME280_humidity;BME280_pressure;Samples;Min_cycle;Max_cycle;Signal;HPM_P1;HPM_P2
2022/11/12 00:01:12;;;;;;;8.97;3.70;;;;;;;9.46;70.75;102130.59;1705111;84;21026;-75
2022/11/12 00:03:57;;;;;;;6.17;3.70;;;;;;;9.46;70.78;102133.21;1705092;82;21042;-74
2022/11/12 00:06:43;;;;;;;5.57;3.40;;;;;;;9.44;70.87;102134.95;1705183;82;21027;-74
2022/11/12 00:09:28;;;;;;;5.30;3.30;;;;;;;9.44;70.82;102132.34;1705171;82;21550;-74
2022/11/12 00:12:14;;;;;;;5.80;3.63;;;;;;;9.43;70.90;102138.02;1705097;82;21106;-74
2022/11/12 00:14:59;;;;;;;7.20;3.63;;;;;;;9.44;70.87;102133.65;1705045;82;21035;-75
2022/11/12 00:17:44;;;;;;;5.03;3.33;;;;;;;9.43;70.90;102134.54;1705000;82;21007;-74
2022/11/12 00:20:30;;;;;;;8.47;3.60;;;;;;;9.41;70.93;102136.28;1705095;82;21014;-75
2022/11/12 00:23:15;;;;;;;8.87;4.30;;;;;;;9.38;70.92;102135.41;1705213;82;21034;-76
2022/11/12 00:26:01;;;;;;;8.23;3.60;;;;;;;9.38;70.94;102141.09;1705084;82;21131;-75
2022/11/12 00:28:46;;;;;;;6.47;3.57;;;;;;;9.36;70.99;102141.53;1704902;82;21086;-75
2022/11/12 00:31:33;;;;;;;5.97;3.50;;;;;;;9.35;71.04;102143.28;1705067;82;21528;-75
2022/11/12 00:34:19;;;;;;;6.27;3.70;;;;;;;9.35;71.11;102144.59;1704983;82;21010;-75
2022/11/12 00:37:05;;;;;;;5.70;3.37;;;;;;;9.34;71.09;102148.09;1705243;82;21042;-75
2022/11/12 00:39:50;;;;;;;6.47;3.70;;;;;;;9.34;71.15;102152.02;1672125;83;21260;-75
2022/11/12 00:42:36;;;;;;;7.13;3.90;;;;;;;9.32;71.15;102150.28;1671578;84;21015;-76
2022/11/12 00:45:21;;;;;;;5.77;3.40;;;;;;;9.28;71.15;102144.61;1671554;84;21030;-77
2022/11/12 00:48:07;;;;;;;7.80;3.80;;;;;;;9.25;71.13;102148.55;1671608;84;21009;-75
2022/11/12 00:51:02;;;;;;;6.03;3.50;;;;;;;9.20;71.14;102147.69;1671659;84;21043;-75
2022/11/12 00:53:48;;;;;;;6.37;3.43;;;;;;;9.16;71.24;102149.02;1671593;84;21512;-79
2022/11/12 00:56:34;;;;;;;5.83;3.77;;;;;;;9.15;71.34;102147.73;1671503;84;21091;-75
2022/11/12 00:59:20;;;;;;;5.70;3.67;;;;;;;9.14;71.37;102148.17;1671569;84;21071;-75
2022/11/12 01:02:05;;;;;;;5.27;3.30;;;;;;;9.12;71.49;102148.61;1671686;84;21286;-75
2022/11/12 01:04:50;;;;;;;5.70;3.63;;;;;;;9.11;71.55;102149.46;1671578;84;21100;-75
2022/11/12 01:07:36;;;;;;;5.47;3.60;;;;;;;9.11;71.62;102151.21;1671608;84;21112;-75
2022/11/12 01:10:22;;;;;;;6.77;3.80;;;;;;;9.08;71.59;102147.30;1671514;84;21444;-76
2022/11/12 01:13:07;;;;;;;5.50;3.13;;;;;;;9.07;71.62;102150.80;1671661;84;21094;-75
2022/11/12 01:15:53;;;;;;;6.17;3.30;;;;;;;9.05;71.73;102146.87;1671580;84;21011;-75
2022/11/12 01:18:39;;;;;;;5.43;3.30;;;;;;;9.04;71.84;102145.58;1671620;84;21011;-75
2022/11/12 01:21:28;;;;;;;5.30;3.30;;;;;;;9.00;71.93;102151.23;1656308;84;21144;-75
2022/11/12 01:24:14;;;;;;;6.77;3.63;;;;;;;8.99;71.97;102156.05;1671557;84;21027;-75
2022/11/12 01:26:59;;;;;;;6.23;3.40;;;;;;;8.93;72.14;102153.01;1671589;84;21034;-78
2022/11/12 01:29:44;;;;;;;6.03;3.43;;;;;;;8.84;71.86;102150.83;1671630;84;21034;-81
2022/11/12 01:32:36;;;;;;;6.87;3.23;;;;;;;8.75;72.17;102148.24;1671774;84;21018;-75
2022/11/12 01:35:21;;;;;;;5.57;3.20;;;;;;;8.71;72.37;102147.39;1671612;84;21153;-75
2022/11/12 01:38:06;;;;;;;5.63;3.50;;;;;;;8.67;72.44;102150.45;1671444;84;21050;-74
2022/11/12 01:40:52;;;;;;;6.07;3.17;;;;;;;8.66;72.60;102152.61;1671366;84;21023;-74
2022/11/12 01:43:38;;;;;;;7.40;3.40;;;;;;;8.63;72.55;102151.75;1671358;84;21015;-75
2022/11/12 01:46:27;;;;;;;7.60;3.40;;;;;;;8.62;72.70;102152.19;1671325;84;21003;-75
2022/11/12 01:49:19;;;;;;;6.20;3.42;;;;;;;8.60;72.87;102152.63;1671474;84;21148;-75
2022/11/12 01:52:33;;;;;;;6.23;3.50;;;;;;;8.60;73.04;102156.98;1671229;84;21007;-74
2022/11/12 01:55:27;;;;;;;7.30;3.57;;;;;;;8.59;73.17;102163.06;1671322;84;21477;-75
2022/11/12 01:58:15;;;;;;;4.77;3.20;;;;;;;8.52;72.93;102167.88;1671397;84;21516;-74
2022/11/12 02:01:02;;;;;;;5.53;3.20;;;;;;;8.49;72.83;102164.83;1671309;84;21038;-75
2022/11/12 02:03:48;;;;;;;7.00;3.50;;;;;;;8.37;72.79;102170.89;1671246;84;21929;-75
2022/11/12 02:06:34;;;;;;;6.37;3.37;;;;;;;8.23;72.84;102166.97;1671327;84;21449;-74
2022/11/12 02:09:20;;;;;;;7.70;3.13;;;;;;;8.10;72.72;102170.87;1671310;84;21532;-75
2022/11/12 02:12:06;;;;;;;7.40;3.63;;;;;;;7.99;72.79;102169.54;1671289;84;21098;-75
2022/11/12 02:14:52;;;;;;;8.33;3.20;;;;;;;7.82;72.89;102174.28;1671325;84;21369;-75
2022/11/12 02:17:38;;;;;;;7.07;3.67;;;;;;;7.67;72.80;102174.66;1671287;84;21138;-75
2022/11/12 02:20:23;;;;;;;5.30;3.13;;;;;;;7.54;73.49;102167.24;1671201;84;21094;-75
2022/11/12 02:23:09;;;;;;;6.13;2.57;;;;;;;7.42;73.28;102167.17;1671364;84;21011;-75
2022/11/12 02:25:54;;;;;;;8.63;2.80;;;;;;;7.29;73.49;102164.96;1671353;84;21050;-75
2022/11/12 02:28:39;;;;;;;4.80;2.67;;;;;;;7.13;73.52;102168.78;1671392;84;21095;-75
2022/11/12 02:31:25;;;;;;;5.23;2.60;;;;;;;7.01;73.75;102161.30;1671281;84;22111;-76
2022/11/12 02:34:11;;;;;;;5.50;3.00;;;;;;;6.89;74.23;102158.20;1671265;84;21000;-75
2022/11/12 02:36:56;;;;;;;4.30;2.87;;;;;;;6.82;74.55;102158.61;1671357;84;20995;-80
2022/11/12 02:39:42;;;;;;;5.57;3.03;;;;;;;6.72;74.79;102158.53;1671261;84;21042;-80
2022/11/12 02:42:27;;;;;;;7.20;3.77;;;;;;;6.60;74.65;102161.48;1671355;84;21524;-75
2022/11/12 02:45:14;;;;;;;4.87;2.93;;;;;;;6.50;74.87;102165.31;1671290;84;21544;-76
2022/11/12 02:48:00;;;;;;;6.33;2.77;;;;;;;6.43;75.38;102172.22;1671308;84;21054;-75
2022/11/12 02:50:47;;;;;;;3.77;2.70;;;;;;;6.34;75.16;102172.11;1671361;84;21031;-76
2022/11/12 02:53:32;;;;;;;5.27;2.17;;;;;;;6.23;75.24;102178.08;1671452;84;21098;-75
2022/11/12 02:56:17;;;;;;;4.37;2.90;;;;;;;6.11;75.33;102178.41;1671472;84;21027;-75
2022/11/12 02:59:03;;;;;;;4.83;2.70;;;;;;;6.04;75.71;102177.46;1671446;84;21133;-74
2022/11/12 03:01:48;;;;;;;5.17;2.40;;;;;;;5.96;75.91;102174.80;1671373;84;21561;-75
2022/11/12 03:04:34;;;;;;;5.70;2.50;;;;;;;5.89;76.05;102174.69;1671458;84;21042;-75
2022/11/12 03:07:19;;;;;;;6.77;2.97;;;;;;;5.81;76.26;102178.06;1671472;84;21011;-74
2022/11/12 03:10:07;;;;;;;4.73;3.00;;;;;;;5.77;76.72;102178.03;1671438;84;20999;-75
2022/11/12 03:12:54;;;;;;;6.10;3.10;;;;;;;5.71;76.82;102181.44;1671457;84;21854;-75
2022/11/12 03:15:40;;;;;;;6.77;3.57;;;;;;;5.67;76.94;102186.14;1666408;85;21039;-76
2022/11/12 03:18:25;;;;;;;5.97;2.87;;;;;;;5.58;76.97;102185.61;1646906;85;21083;-80
2022/11/12 03:21:11;;;;;;;8.73;4.30;;;;;;;5.48;76.77;102186.34;1653204;85;21544;-75
2022/11/12 03:23:57;;;;;;;12.63;5.87;;;;;;;5.42;76.92;102186.70;1653854;85;21070;-75
2022/11/12 03:26:43;;;;;;;11.83;5.70;;;;;;;5.33;77.14;102183.13;1665534;85;21147;-75
2022/11/12 03:29:28;;;;;;;13.57;6.53;;;;;;;5.27;77.19;102184.79;1666165;85;21030;-76
2022/11/12 03:32:14;;;;;;;17.07;7.10;;;;;;;5.22;77.66;102189.05;1656301;85;21463;-75
2022/11/12 03:34:59;;;;;;;16.70;7.47;;;;;;;5.20;77.96;102178.61;1662943;85;21086;-74
2022/11/12 03:37:44;;;;;;;18.70;7.80;;;;;;;5.17;77.91;102183.77;1666337;85;21078;-80
2022/11/12 03:40:31;;;;;;;18.03;7.23;;;;;;;5.14;78.04;102182.44;1693422;84;21134;-78
2022/11/12 03:43:16;;;;;;;12.93;6.40;;;;;;;5.09;78.13;102191.45;1699571;82;21052;-74
2022/11/12 03:46:01;;;;;;;13.03;6.07;;;;;;;5.05;78.09;102193.58;1699560;82;21048;-74
2022/11/12 03:48:47;;;;;;;10.87;4.53;;;;;;;5.00;78.51;102191.33;1694497;82;20943;-74
2022/11/12 03:51:32;;;;;;;11.70;4.90;;;;;;;5.03;78.80;102195.70;1691041;84;21001;-74
2022/11/12 03:54:18;;;;;;;7.83;4.17;;;;;;;4.97;78.80;102197.79;1699588;83;21109;-74
2022/11/12 03:57:04;;;;;;;7.60;4.40;;;;;;;4.90;78.58;102194.23;1699494;83;20968;-75
2022/11/12 03:59:49;;;;;;;7.67;4.23;;;;;;;4.87;78.72;102190.27;1699465;84;21051;-74
2022/11/12 04:02:36;;;;;;;7.23;3.37;;;;;;;4.79;78.87;102188.41;1699537;84;21036;-80
2022/11/12 04:08:35;;;;;;;7.17;3.83;;;;;;;4.74;79.16;102178.36;1699554;84;21043;-78
2022/11/12 04:11:20;;;;;;;7.73;3.73;;;;;;;4.65;79.06;102182.56;1699477;82;21021;-75
2022/11/12 04:14:05;;;;;;;7.23;3.47;;;;;;;4.60;79.05;102182.94;1699502;83;21055;-75
2022/11/12 04:22:59;;;;;;;5.43;3.30;;;;;;;4.38;78.92;102183.00;1693753;84;22072;-76
2022/11/12 04:31:54;;;;;;;6.63;3.80;;;;;;;4.31;79.70;102185.47;1699546;84;21048;-75
2022/11/12 04:34:39;;;;;;;6.23;4.00;;;;;;;4.24;79.60;102189.26;1699531;83;21158;-75
2022/11/12 04:37:27;;;;;;;8.30;4.47;;;;;;;4.19;79.65;102187.00;1699816;84;22028;-75
2022/11/12 04:46:25;;;;;;;6.67;3.77;;;;;;;4.01;79.86;102186.22;1699581;83;21049;-75
2022/11/12 04:49:11;;;;;;;8.33;4.07;;;;;;;3.99;80.07;102185.34;1699553;84;21008;-75
2022/11/12 04:52:05;;;;;;;8.97;3.80;;;;;;;3.98;80.19;102184.00;1699513;82;21069;-74
2022/11/12 04:54:52;;;;;;;6.67;4.17;;;;;;;3.93;79.99;102186.93;1679441;83;20959;-75
2022/11/12 04:57:38;;;;;;;6.93;3.43;;;;;;;3.89;80.10;102186.44;1699848;83;21111;-78
2022/11/12 05:00:23;;;;;;;7.20;4.10;;;;;;;3.86;80.21;102183.78;1699476;82;21100;-75
2022/11/12 05:03:08;;;;;;;8.70;4.07;;;;;;;3.80;80.11;102188.44;1699737;83;21017;-75
2022/11/12 05:09:11;;;;;;;6.30;3.67;;;;;;;3.70;80.27;102183.47;1631605;86;21554;-75
2022/11/12 05:11:57;;;;;;;11.57;4.33;;;;;;;3.67;80.19;102181.25;1641534;87;21088;-79
2022/11/12 05:14:42;;;;;;;10.20;3.60;;;;;;;3.63;80.60;102182.92;1641530;87;21116;-78
2022/11/12 05:17:27;;;;;;;7.67;4.00;;;;;;;3.63;80.72;102182.02;1655239;86;21111;-75
2022/11/12 05:20:15;;;;;;;6.20;3.33;;;;;;;3.58;80.55;102188.42;1641473;87;21239;-75
2022/11/12 05:23:00;;;;;;;7.80;3.93;;;;;;;3.56;80.70;102186.22;1641689;87;21593;-75
2022/11/12 05:25:45;;;;;;;6.30;3.60;;;;;;;3.48;80.69;102188.64;1655491;86;21128;-75
2022/11/12 05:28:31;;;;;;;6.50;3.60;;;;;;;3.45;80.76;102185.98;1641522;87;21099;-75
2022/11/12 05:31:16;;;;;;;7.57;3.93;;;;;;;3.41;80.78;102189.37;1641733;87;21035;-75
2022/11/12 05:34:01;;;;;;;5.40;3.53;;;;;;;3.35;80.60;102190.13;1655308;86;21292;-75
2022/11/12 05:36:47;;;;;;;5.93;3.70;;;;;;;3.32;81.00;102197.80;1641512;87;21058;-75
2022/11/12 05:39:32;;;;;;;6.77;3.63;;;;;;;3.30;80.84;102194.75;1658404;84;21056;-76
2022/11/12 05:42:18;;;;;;;8.70;3.47;;;;;;;3.28;81.07;102198.59;1680356;85;21492;-75
2022/11/12 05:45:05;;;;;;;6.00;3.17;;;;;;;3.23;80.86;102200.63;1680372;85;21582;-76
2022/11/12 05:47:51;;;;;;;7.63;3.77;;;;;;;3.17;80.89;102196.19;1680379;85;21115;-76
2022/11/12 05:50:36;;;;;;;7.03;3.53;;;;;;;3.12;80.89;102207.73;1680285;85;21010;-76
2022/11/12 05:53:22;;;;;;;7.97;3.53;;;;;;;3.09;81.04;102207.67;1680363;85;21564;-75
2022/11/12 05:56:10;;;;;;;7.37;4.10;;;;;;;3.08;81.19;102207.66;1680426;85;21042;-75
2022/11/12 05:59:00;;;;;;;8.43;3.50;;;;;;;3.13;81.80;102212.49;1680386;85;21301;-76
2022/11/12 06:01:46;;;;;;;6.03;3.52;;;;;;;3.12;81.62;102209.45;1680423;85;21570;-74
2022/11/12 06:04:32;;;;;;;6.63;3.67;;;;;;;3.08;81.41;102218.02;1680497;85;21050;-76
2022/11/12 06:07:17;;;;;;;8.77;3.47;;;;;;;3.04;81.59;102219.64;1696400;84;21034;-73
2022/11/12 06:10:03;;;;;;;6.30;3.77;;;;;;;3.04;81.65;102226.11;1693783;84;21042;-79
2022/11/12 06:12:48;;;;;;;6.33;3.90;;;;;;;3.04;81.86;102219.64;1691470;84;21050;-80
2022/11/12 06:15:34;;;;;;;6.60;3.90;;;;;;;3.03;81.71;102222.21;1694399;84;21116;-79
2022/11/12 06:18:19;;;;;;;8.30;3.97;;;;;;;2.97;81.40;102227.25;1693789;84;21046;-80
2022/11/12 06:21:21;;;;;;;6.93;3.87;;;;;;;2.88;81.36;102224.00;1689760;84;21045;-77
2022/11/12 06:24:07;;;;;;;7.77;4.20;;;;;;;2.85;81.46;102222.64;1712806;83;21017;-76
2022/11/12 06:26:52;;;;;;;9.23;4.00;;;;;;;2.82;81.75;102232.92;1715914;83;21017;-80
2022/11/12 06:29:38;;;;;;;8.03;3.70;;;;;;;2.83;82.09;102234.27;1689219;84;21058;-77
2022/11/12 06:32:24;;;;;;;6.97;3.53;;;;;;;2.87;82.45;102234.78;1693001;84;21561;-78
2022/11/12 06:35:09;;;;;;;7.07;3.70;;;;;;;2.89;82.10;102241.31;1694592;84;21539;-79
2022/11/12 06:37:55;;;;;;;4.97;3.50;;;;;;;2.86;82.18;102242.54;1712233;83;21021;-79
2022/11/12 06:40:41;;;;;;;8.93;4.00;;;;;;;2.84;82.13;102241.62;1690191;83;21050;-76
2022/11/12 06:43:29;;;;;;;7.63;4.57;;;;;;;2.85;82.40;102242.06;1721194;82;21149;-77
2022/11/12 06:46:17;;;;;;;6.37;3.60;;;;;;;2.89;82.62;102251.25;1719648;82;21499;-78
2022/11/12 06:49:03;;;;;;;5.83;3.30;;;;;;;2.92;82.80;102248.28;1719794;82;21010;-77
2022/11/12 06:51:50;;;;;;;8.23;3.57;;;;;;;2.95;82.85;102253.53;1720492;82;21513;-75
2022/11/12 06:54:36;;;;;;;5.30;3.70;;;;;;;2.99;83.08;102252.75;1715137;82;21287;-76
2022/11/12 06:57:21;;;;;;;6.00;3.60;;;;;;;3.03;83.37;102253.30;1668650;85;21551;-77
2022/11/12 07:00:10;;;;;;;5.50;3.43;;;;;;;3.05;83.01;102252.92;1668812;85;20955;-76
2022/11/12 07:02:55;;;;;;;6.93;3.90;;;;;;;3.12;83.54;102251.78;1668787;85;21079;-81
2022/11/12 07:05:40;;;;;;;8.37;3.30;;;;;;;3.17;83.49;102251.03;1668753;85;21019;-78
2022/11/12 07:08:26;;;;;;;5.80;3.73;;;;;;;3.22;83.78;102249.00;1669304;85;21054;-81
2022/11/12 07:11:12;;;;;;;5.77;3.57;;;;;;;3.27;83.51;102251.67;1668800;85;21326;-81
2022/11/12 07:13:57;;;;;;;7.47;3.70;;;;;;;3.32;83.85;102250.06;1668587;85;21023;-81
2022/11/12 07:16:43;;;;;;;6.20;3.73;;;;;;;3.37;84.08;102241.11;1668722;85;21484;-82
2022/11/12 07:19:28;;;;;;;6.47;4.37;;;;;;;3.46;84.27;102240.88;1668690;85;20954;-79
2022/11/12 07:22:14;;;;;;;9.10;3.93;;;;;;;3.57;84.71;102245.90;1668700;85;22219;-77
2022/11/12 07:24:59;;;;;;;7.60;3.90;;;;;;;3.71;84.92;102250.47;1674585;85;21900;-79
2022/11/12 07:27:44;;;;;;;6.83;3.83;;;;;;;3.77;84.82;102247.60;1665331;86;21091;-83
2022/11/12 07:30:29;;;;;;;7.53;4.50;;;;;;;3.84;84.74;102250.31;1663705;86;20971;-78
2022/11/12 07:33:15;;;;;;;9.73;4.40;;;;;;;3.94;85.11;102248.37;1684697;85;21030;-78
2022/11/12 07:36:06;;;;;;;8.57;4.67;;;;;;;4.07;85.44;102249.47;1672634;85;21051;-77
2022/11/12 07:38:53;;;;;;;7.73;4.10;;;;;;;4.21;85.70;102248.91;1649291;86;21993;-78
2022/11/12 07:41:38;;;;;;;8.77;4.50;;;;;;;4.34;85.74;102249.11;1653458;85;21007;-79
2022/11/12 07:44:24;;;;;;;7.67;4.63;;;;;;;4.47;85.97;102249.80;1685978;84;21500;-79
2022/11/12 07:47:10;;;;;;;8.33;5.13;;;;;;;4.61;86.33;102247.01;1687461;84;21015;-79
2022/11/12 07:49:56;;;;;;;7.10;4.23;;;;;;;4.74;86.21;102252.00;1687274;84;21078;-79
2022/11/12 07:52:41;;;;;;;7.43;4.63;;;;;;;4.84;86.19;102259.50;1691752;83;21801;-78
2022/11/12 07:55:27;;;;;;;7.63;4.70;;;;;;;4.99;86.63;102258.47;1684680;84;20919;-79
2022/11/12 07:58:12;;;;;;;7.50;4.33;;;;;;;5.16;86.84;102257.42;1682221;84;21003;-79
2022/11/12 08:01:12;;;;;;;8.13;4.97;;;;;;;5.29;86.87;102251.56;1694997;84;21018;-79
2022/11/12 08:03:59;;;;;;;8.90;5.17;;;;;;;5.44;87.02;102257.39;1685133;84;21038;-79
2022/11/12 08:06:45;;;;;;;10.67;6.43;;;;;;;5.63;87.33;102252.45;1683296;84;21184;-82
2022/11/12 08:09:31;;;;;;;13.10;6.17;;;;;;;5.83;87.54;102250.09;1694422;83;22163;-79
2022/11/12 08:12:16;;;;;;;7.93;4.97;;;;;;;6.06;87.55;102252.98;1694775;84;21049;-78
2022/11/12 08:15:02;;;;;;;8.33;4.97;;;;;;;6.35;87.71;102255.91;1689280;83;21042;-78
2022/11/12 08:17:48;;;;;;;8.57;4.97;;;;;;;6.64;87.53;102247.92;1688118;84;21560;-78
2022/11/12 08:20:34;;;;;;;8.07;4.70;;;;;;;6.91;87.53;102246.42;1688039;84;21962;-80
2022/11/12 08:23:19;;;;;;;7.90;5.10;;;;;;;7.15;86.89;102245.73;1675324;84;21023;-79
2022/11/12 08:26:09;;;;;;;8.07;4.87;;;;;;;7.42;86.74;102245.00;1695167;84;20961;-78
2022/11/12 08:28:54;;;;;;;10.55;5.03;;;;;;;7.69;86.25;102252.11;1670039;85;20999;-80
2022/11/12 08:31:41;;;;;;;9.57;4.73;;;;;;;7.95;85.86;102247.00;1699695;84;21260;-79
2022/11/12 08:34:27;;;;;;;8.40;4.53;;;;;;;8.26;85.43;102252.31;1669932;85;22120;-79
2022/11/12 08:37:12;;;;;;;8.33;4.90;;;;;;;8.53;84.89;102259.33;1699508;84;21067;-79
2022/11/12 08:39:57;;;;;;;6.53;4.33;;;;;;;8.79;84.45;102254.14;1669898;85;21074;-80
2022/11/12 08:42:43;;;;;;;8.70;4.67;;;;;;;9.04;83.87;102244.53;1699376;84;21063;-83
2022/11/12 08:45:31;;;;;;;9.67;4.10;;;;;;;9.26;83.44;102254.53;1680444;85;21026;-79
2022/11/12 08:48:16;;;;;;;6.53;3.60;;;;;;;9.47;82.83;102252.73;1680304;85;21923;-79
2022/11/12 08:51:04;;;;;;;7.30;4.33;;;;;;;9.69;82.47;102254.84;1680416;85;21497;-79
2022/11/12 08:53:50;;;;;;;8.57;5.20;;;;;;;9.89;81.80;102248.20;1680383;85;21038;-79
2022/11/12 08:56:36;;;;;;;7.60;5.10;;;;;;;10.10;81.48;102255.97;1680409;85;20962;-79
2022/11/12 08:59:21;;;;;;;9.50;5.73;;;;;;;10.31;81.10;102261.98;1680479;85;21089;-79
2022/11/12 09:02:12;;;;;;;7.83;4.13;;;;;;;10.50;80.83;102262.29;1680481;85;21138;-81
2022/11/12 09:04:58;;;;;;;5.58;3.60;;;;;;;10.71;80.38;102265.20;1680283;85;21030;-79
2022/11/12 09:07:43;;;;;;;6.10;3.53;;;;;;;10.90;80.04;102261.55;1680488;85;21090;-79
2022/11/12 09:10:29;;;;;;;6.77;3.67;;;;;;;11.12;79.67;102257.42;1680379;85;21559;-79
2022/11/12 09:13:17;;;;;;;8.13;4.00;;;;;;;11.31;79.21;102259.44;1680330;85;21122;-79
2022/11/12 09:16:06;;;;;;;5.83;3.58;;;;;;;11.49;78.83;102253.09;1680433;85;21396;-79
2022/11/12 09:18:52;;;;;;;4.62;3.62;;;;;;;11.68;78.29;102259.02;1680203;85;21022;-79
2022/11/12 09:21:37;;;;;;;7.17;4.05;;;;;;;11.88;78.01;102260.11;1680359;85;21102;-80
2022/11/12 09:24:23;;;;;;;4.72;3.83;;;;;;;12.04;77.53;102262.97;1660261;85;21571;-79
2022/11/12 09:27:08;;;;;;;7.53;4.20;;;;;;;12.23;77.10;102259.19;1680437;85;20995;-78
2022/11/12 09:29:54;;;;;;;8.60;4.15;;;;;;;12.40;76.52;102262.03;1680397;85;21079;-80
2022/11/12 09:32:39;;;;;;;6.65;4.35;;;;;;;12.45;75.77;102260.20;1680356;85;21030;-79
2022/11/12 09:35:25;;;;;;;7.12;4.12;;;;;;;12.54;75.49;102254.79;1680435;85;21045;-79
2022/11/12 09:38:11;;;;;;;7.83;4.78;;;;;;;12.67;75.18;102264.69;1680395;85;21279;-79
2022/11/12 09:41:19;;;;;;;6.17;4.70;;;;;;;12.76;74.80;102254.00;1680349;85;21588;-79
2022/11/12 09:44:09;;;;;;;8.45;4.47;;;;;;;12.90;74.46;102255.09;1678776;84;21170;-79
2022/11/12 09:47:15;;;;;;;9.30;4.65;;;;;;;13.05;74.17;102250.88;1699460;83;21030;-79
2022/11/12 09:50:32;;;;;;;7.40;4.30;;;;;;;13.25;73.72;102259.73;1669855;85;21405;-79
2022/11/12 09:53:31;;;;;;;6.72;4.15;;;;;;;13.42;73.25;102267.80;1699535;84;21016;-81
2022/11/12 09:56:20;;;;;;;8.98;4.00;;;;;;;13.51;72.59;102260.57;1670076;85;21242;-79
2022/11/12 09:59:13;;;;;;;5.83;4.47;;;;;;;13.74;72.61;102261.88;1699491;84;21970;-79
2022/11/12 10:02:28;;;;;;;6.33;4.15;;;;;;;13.96;72.46;102257.88;1669791;85;20976;-80
2022/11/12 10:05:34;;;;;;;6.00;4.35;;;;;;;14.19;72.04;102262.67;1699486;84;21470;-79
2022/11/12 10:08:49;;;;;;;6.45;4.53;;;;;;;14.42;71.53;102270.52;1669910;85;21023;-79
2022/11/12 10:19:14;;;;;;;7.45;4.62;;;;;;;14.90;70.31;102270.25;1699443;84;21004;-81
2022/11/12 10:22:23;;;;;;;5.40;4.15;;;;;;;15.14;69.87;102272.27;1669662;85;21011;-81
2022/11/12 10:25:18;;;;;;;6.67;4.28;;;;;;;15.22;68.98;102266.78;1699491;84;21000;-81
2022/11/12 10:28:36;;;;;;;8.83;4.45;;;;;;;15.35;68.98;102268.20;1669906;85;21017;-82
2022/11/12 10:31:21;;;;;;;7.58;4.40;;;;;;;15.53;68.73;102269.91;1699436;84;21974;-81
2022/11/12 10:34:22;;;;;;;8.28;4.87;;;;;;;15.72;68.09;102276.91;1669808;85;20987;-82
2022/11/12 10:37:28;;;;;;;6.78;4.37;;;;;;;15.74;67.51;102281.23;1699532;84;21015;-80
2022/11/12 10:40:28;;;;;;;9.05;4.70;;;;;;;15.93;67.26;102278.90;1669768;85;21007;-80
2022/11/12 10:43:21;;;;;;;8.20;5.15;;;;;;;16.09;67.15;102285.93;1699647;84;21032;-80
2022/11/12 10:46:20;;;;;;;8.63;4.58;;;;;;;16.12;66.68;102279.22;1669869;85;21097;-80
2022/11/12 10:49:17;;;;;;;7.60;4.92;;;;;;;16.20;66.32;102282.50;1699704;84;21008;-81
2022/11/12 10:52:02;;;;;;;8.45;4.92;;;;;;;16.31;66.24;102278.67;1669812;85;21027;-80
2022/11/12 10:54:47;;;;;;;10.45;5.53;;;;;;;16.39;65.85;102280.63;1699439;84;21004;-81
2022/11/12 10:57:32;;;;;;;7.60;4.60;;;;;;;16.42;65.12;102284.49;1669786;85;21310;-80
2022/11/12 11:00:20;;;;;;;6.67;5.15;;;;;;;16.45;65.17;102283.06;1699434;84;21482;-80
2022/11/12 11:03:23;;;;;;;7.50;5.35;;;;;;;16.57;64.87;102275.19;1669831;85;21031;-80
2022/11/12 11:06:17;;;;;;;8.55;5.50;;;;;;;16.44;64.02;102281.34;1626676;84;21063;-80
2022/11/12 11:09:16;;;;;;;10.10;5.53;;;;;;;16.39;64.04;102284.13;1673820;85;20996;-80
2022/11/12 11:12:02;;;;;;;7.50;6.10;;;;;;;16.68;63.97;102285.86;1699759;84;21063;-80
2022/11/12 11:15:08;;;;;;;9.00;7.65;;;;;;;16.93;63.73;102281.97;1670068;85;22139;-80
2022/11/12 11:17:54;;;;;;;16.30;12.33;;;;;;;17.09;63.50;102286.27;1699610;84;21007;-82
2022/11/12 11:20:44;;;;;;;18.62;13.70;;;;;;;17.11;63.24;102278.28;1678068;84;21036;-79
2022/11/12 11:23:38;;;;;;;17.70;12.45;;;;;;;17.07;63.30;102281.94;1688700;84;21030;-80
2022/11/12 11:27:01;;;;;;;18.30;14.00;;;;;;;16.92;62.88;102285.98;1699075;83;21022;-80
2022/11/12 11:30:18;;;;;;;20.80;15.98;;;;;;;16.67;62.68;102297.34;1670023;85;21126;-79
2022/11/12 11:33:42;;;;;;;18.48;14.35;;;;;;;16.26;62.66;102298.64;1669967;85;21490;-82
2022/11/12 11:36:36;;;;;;;20.77;15.32;;;;;;;15.98;63.24;102288.89;1670005;85;20995;-81
2022/11/12 11:39:55;;;;;;;24.45;15.03;;;;;;;15.90;63.62;102300.15;1670047;85;21363;-80
2022/11/12 11:43:09;;;;;;;21.35;13.90;;;;;;;15.86;64.05;102298.52;1670151;85;21295;-82
2022/11/12 11:46:13;;;;;;;20.02;12.20;;;;;;;15.82;64.28;102291.14;1668375;85;21161;-81
2022/11/12 11:49:30;;;;;;;25.30;15.95;;;;;;;15.98;64.82;102282.74;1680364;85;21484;-81
2022/11/12 11:52:33;;;;;;;22.80;13.78;;;;;;;15.89;64.52;102285.67;1680366;85;21072;-81
2022/11/12 11:55:49;;;;;;;18.77;12.53;;;;;;;15.54;64.31;102288.34;1680456;85;21058;-82
2022/11/12 11:58:49;;;;;;;16.50;11.30;;;;;;;15.08;64.22;102290.06;1680370;85;21050;-81
2022/11/12 12:01:57;;;;;;;;;;;;;;;14.57;64.42;102294.37;1683050;85;21267;-80
2022/11/12 12:05:14;;;;;;;16.57;10.80;;;;;;;14.15;65.05;102291.77;1680357;85;20152;-79
2022/11/12 12:08:14;;;;;;;22.55;11.57;;;;;;;13.83;65.88;102299.47;1631521;85;21038;-81
2022/11/12 12:11:17;;;;;;;18.05;10.95;;;;;;;13.50;66.39;102297.05;1680473;85;21082;-80
2022/11/12 12:14:29;;;;;;;17.35;11.03;;;;;;;13.25;66.67;102292.65;1661625;85;21086;-79
2022/11/12 12:17:40;;;;;;;14.95;8.75;;;;;;;12.97;67.29;102293.58;1680441;85;21169;-83
2022/11/12 12:20:46;;;;;;;13.70;7.70;;;;;;;12.75;67.86;102294.80;1680822;84;21084;-90
2022/11/12 12:23:49;;;;;;;14.23;8.13;;;;;;;12.63;68.46;102290.60;1710720;82;21436;-89
2022/11/12 12:27:10;;;;;;;12.37;7.90;;;;;;;12.50;68.76;102287.31;1690298;82;21067;-81
2022/11/12 12:30:04;;;;;;;12.43;8.35;;;;;;;12.35;69.11;102284.89;1701607;83;21519;-82
2022/11/12 12:33:01;;;;;;;14.05;7.75;;;;;;;12.27;69.64;102277.09;1701658;83;21151;-82
2022/11/12 12:35:57;;;;;;;19.40;9.58;;;;;;;12.22;69.94;102280.23;1701476;83;21564;-83
2022/11/12 12:38:57;;;;;;;12.35;7.22;;;;;;;12.12;70.22;102283.90;1701755;83;21011;-79
2022/11/12 12:41:51;;;;;;;12.68;7.30;;;;;;;12.03;70.41;102277.01;1687721;83;21501;-82
2022/11/12 12:45:00;;;;;;;13.72;7.85;;;;;;;11.98;70.83;102273.56;1701963;83;21015;-78
2022/11/12 12:47:46;;;;;;;15.05;7.00;;;;;;;11.94;70.99;102277.11;1708708;82;21270;-81
2022/11/12 12:50:35;;;;;;;11.33;6.67;;;;;;;11.89;71.33;102277.19;1718575;82;21556;-77
2022/11/12 12:53:33;;;;;;;11.53;6.65;;;;;;;11.86;71.46;102268.03;1722567;82;21067;-85
2022/11/12 12:56:33;;;;;;;13.55;7.92;;;;;;;11.84;71.74;102276.34;1704821;82;21160;-79
2022/11/12 12:59:23;;;;;;;14.55;7.80;;;;;;;11.82;71.81;102277.66;1704108;82;21145;-82
2022/11/12 13:02:23;;;;;;;13.32;7.08;;;;;;;11.80;72.20;102267.59;1704919;82;21136;-81
2022/11/12 13:05:39;;;;;;;12.18;7.40;;;;;;;11.84;72.38;102266.69;1704902;82;21292;-87
2022/11/12 13:08:25;;;;;;;13.03;7.95;;;;;;;11.83;72.33;102267.59;1704956;82;21045;-79
2022/11/12 13:14:58;;;;;;;13.93;8.15;;;;;;;11.75;72.55;102267.23;1701707;82;21412;-92
2022/11/12 13:17:47;;;;;;;15.05;8.25;;;;;;;11.73;72.77;102264.64;1705676;82;22022;-82
2022/11/12 13:20:37;;;;;;;13.98;9.10;;;;;;;11.70;72.75;102272.56;1709011;82;21058;-81
2022/11/12 13:26:52;;;;;;;14.73;8.60;;;;;;;11.66;73.17;102270.84;1731033;82;21026;-81
2022/11/12 13:29:41;;;;;;;13.08;7.25;;;;;;;11.65;73.37;102275.67;1731192;82;21512;-82
2022/11/12 13:32:47;;;;;;;8.58;5.65;;;;;;;11.64;73.50;102274.37;1734821;82;21805;-83
2022/11/12 13:35:39;;;;;;;8.48;5.40;;;;;;;11.65;73.67;102274.81;1730494;82;21557;-88
2022/11/12 13:38:25;;;;;;;7.20;4.37;;;;;;;11.64;73.61;102273.95;1739737;82;21007;-82
2022/11/12 13:41:16;;;;;;;7.37;4.22;;;;;;;11.63;73.62;102268.70;1732569;82;21016;-83
2022/11/12 13:44:06;;;;;;;7.15;4.10;;;;;;;11.65;73.83;102265.17;1738971;82;21050;-83
2022/11/12 13:46:54;;;;;;;8.68;4.78;;;;;;;11.60;73.60;102277.48;1738935;82;21941;-84
2022/11/12 13:49:42;;;;;;;7.72;4.35;;;;;;;11.56;73.93;102263.52;1732604;82;21037;-83
2022/11/12 13:52:29;;;;;;;12.07;4.85;;;;;;;11.60;74.09;102272.23;1739853;82;21027;-82
2022/11/12 13:55:22;;;;;;;7.83;4.55;;;;;;;11.61;74.23;102263.03;1737100;82;21035;-83